createdAt,value
2017-10-03T00:01:07.939Z,10.17
2017-10-03T00:03:34.469Z,10.20
2017-10-03T00:06:01.673Z,8.63
2017-10-03T00:08:28.093Z,8.30
2017-10-03T00:10:54.593Z,7.10
2017-10-03T00:13:21.006Z,7.57
2017-10-03T00:15:54.314Z,6.70
2017-10-03T00:18:20.741Z,6.13
2017-10-03T00:20:47.927Z,5.60
2017-10-03T00:23:14.319Z,6.97
2017-10-03T00:25:41.511Z,6.00
2017-10-03T00:28:07.950Z,6.43
2017-10-03T00:30:35.126Z,6.20
2017-10-03T00:33:01.556Z,7.03
2017-10-03T00:35:28.712Z,6.40
2017-10-03T00:37:55.883Z,5.20
2017-10-03T00:40:22.459Z,6.93
2017-10-03T00:42:48.878Z,6.30
2017-10-03T00:45:16.066Z,7.30
2017-10-03T00:47:42.480Z,5.90
2017-10-03T00:50:08.947Z,5.03
2017-10-03T00:52:35.350Z,7.07
2017-10-03T00:55:02.646Z,5.43
2017-10-03T00:57:29.227Z,5.50
2017-10-03T00:59:55.645Z,5.70
2017-10-03T01:02:22.122Z,7.37
2017-10-03T01:04:48.566Z,5.93
2017-10-03T01:07:15.011Z,7.77
2017-10-03T01:09:41.464Z,5.20
2017-10-03T01:12:08.677Z,7.67
2017-10-03T01:14:35.150Z,7.30
2017-10-03T01:17:01.565Z,8.10
2017-10-03T01:19:28.007Z,7.13
2017-10-03T01:21:54.487Z,9.00
2017-10-03T01:24:21.686Z,7.47
2017-10-03T01:26:48.121Z,6.53
2017-10-03T01:29:15.305Z,7.47
2017-10-03T01:31:42.097Z,8.13
2017-10-03T01:34:08.528Z,7.20
2017-10-03T01:36:34.993Z,9.40
2017-10-03T01:39:01.492Z,9.23
2017-10-03T01:41:27.958Z,7.50
2017-10-03T01:43:55.139Z,7.17
2017-10-03T01:46:22.331Z,7.57
2017-10-03T01:48:49.478Z,7.97
2017-10-03T01:51:16.698Z,7.20
2017-10-03T01:53:43.115Z,7.50
2017-10-03T01:56:09.792Z,10.03
2017-10-03T01:58:36.293Z,7.23
2017-10-03T02:01:02.802Z,8.87
2017-10-03T02:03:29.285Z,7.30
2017-10-03T02:05:55.733Z,5.63
2017-10-03T02:08:22.181Z,5.87
2017-10-03T02:10:48.676Z,4.20
2017-10-03T02:13:15.095Z,4.67
2017-10-03T02:15:41.506Z,4.00
2017-10-03T02:18:07.975Z,3.53
2017-10-03T02:20:34.415Z,3.00
2017-10-03T02:23:00.846Z,3.70
2017-10-03T02:25:27.279Z,3.70
2017-10-03T02:27:54.434Z,3.77
2017-10-03T02:30:20.902Z,3.50
2017-10-03T02:32:47.318Z,3.20
2017-10-03T02:35:14.459Z,3.93
2017-10-03T02:37:40.902Z,3.40
2017-10-03T02:40:07.406Z,3.90
2017-10-03T02:42:33.870Z,4.00
2017-10-03T02:45:00.247Z,3.50
2017-10-03T02:47:26.690Z,4.23
2017-10-03T02:49:53.126Z,3.83
2017-10-03T02:52:19.562Z,6.43
2017-10-03T02:54:45.993Z,5.10
2017-10-03T02:57:12.432Z,4.57
2017-10-03T02:59:39.185Z,5.13
2017-10-03T03:02:06.638Z,4.80
2017-10-03T03:04:33.031Z,3.97
2017-10-03T03:06:59.501Z,5.70
2017-10-03T03:09:25.936Z,5.10
2017-10-03T03:11:52.335Z,4.93
2017-10-03T03:14:18.778Z,5.53
2017-10-03T03:16:45.923Z,5.70
2017-10-03T03:19:12.325Z,8.20
2017-10-03T03:21:39.434Z,6.70
2017-10-03T03:24:05.955Z,8.33
2017-10-03T03:26:33.503Z,8.07
2017-10-03T03:29:00.773Z,8.80
2017-10-03T03:31:27.175Z,7.70
2017-10-03T03:33:53.644Z,8.07
2017-10-03T03:36:20.062Z,9.57
2017-10-03T03:38:46.541Z,10.23
2017-10-03T03:41:12.949Z,7.67
2017-10-03T03:43:39.696Z,9.77
2017-10-03T03:46:06.121Z,12.03
2017-10-03T03:48:33.312Z,11.80
2017-10-03T03:51:00.437Z,13.60
2017-10-03T03:53:27.689Z,10.37
2017-10-03T03:55:54.077Z,10.97
2017-10-03T03:58:20.483Z,10.70
2017-10-03T04:00:47.648Z,12.60
2017-10-03T04:03:14.807Z,10.73
2017-10-03T04:05:41.186Z,12.07
2017-10-03T04:08:07.615Z,14.40
2017-10-03T04:10:34.078Z,12.83
2017-10-03T04:13:00.621Z,13.30
2017-10-03T04:15:27.922Z,12.77
2017-10-03T04:17:54.367Z,13.37
2017-10-03T04:20:20.817Z,12.97
2017-10-03T04:22:47.243Z,13.50
2017-10-03T04:25:13.670Z,13.87
2017-10-03T04:27:40.162Z,14.90
2017-10-03T04:30:06.595Z,12.77
2017-10-03T04:32:33.034Z,16.07
2017-10-03T04:35:00.930Z,16.03
2017-10-03T04:37:27.418Z,17.60
2017-10-03T04:40:00.818Z,16.43
2017-10-03T04:42:27.238Z,18.70
2017-10-03T04:44:54.397Z,19.60
2017-10-03T04:47:21.535Z,17.90
2017-10-03T04:49:48.719Z,17.17
2017-10-03T04:52:15.907Z,15.37
2017-10-03T04:54:42.398Z,15.33
2017-10-03T04:57:08.804Z,18.07
2017-10-03T04:59:35.248Z,16.47
2017-10-03T05:02:01.783Z,16.20
2017-10-03T05:04:28.267Z,17.50
2017-10-03T05:06:56.255Z,15.80
2017-10-03T05:09:23.542Z,16.13
2017-10-03T05:11:50.018Z,15.10
2017-10-03T05:14:16.606Z,13.50
2017-10-03T05:16:44.178Z,13.17
2017-10-03T05:19:12.289Z,13.60
2017-10-03T05:21:39.839Z,14.50
2017-10-03T05:24:07.010Z,14.67
2017-10-03T05:26:34.433Z,11.47
2017-10-03T05:29:01.532Z,12.50
2017-10-03T05:31:30.301Z,12.43
2017-10-03T05:33:57.819Z,11.63
2017-10-03T05:36:25.358Z,11.60
2017-10-03T05:38:54.195Z,10.67
2017-10-03T05:41:21.519Z,11.20
2017-10-03T05:43:48.124Z,11.20
2017-10-03T05:46:15.143Z,11.10
2017-10-03T05:48:41.628Z,9.60
2017-10-03T05:51:08.899Z,8.63
2017-10-03T05:53:35.474Z,10.50
2017-10-03T05:56:02.364Z,8.40
2017-10-03T05:58:29.595Z,7.83
2017-10-03T06:00:57.921Z,7.50
2017-10-03T06:03:25.198Z,8.33
2017-10-03T06:05:55.538Z,6.17
2017-10-03T06:08:23.619Z,5.83
2017-10-03T06:10:50.556Z,6.20
2017-10-03T06:13:20.514Z,6.93
2017-10-03T06:15:47.938Z,6.57
2017-10-03T06:18:14.483Z,7.23
2017-10-03T06:20:41.115Z,7.13
2017-10-03T06:23:07.629Z,8.23
2017-10-03T06:25:34.165Z,6.77
2017-10-03T06:28:00.710Z,6.03
2017-10-03T06:30:27.399Z,5.80
2017-10-03T06:32:54.849Z,6.10
2017-10-03T06:35:21.466Z,6.57
2017-10-03T06:37:49.026Z,6.90
2017-10-03T06:40:17.354Z,6.00
2017-10-03T06:42:44.699Z,6.37
2017-10-03T06:45:11.302Z,5.80
2017-10-03T06:47:37.925Z,9.10
2017-10-03T06:50:04.411Z,6.83
2017-10-03T06:52:31.039Z,6.23
2017-10-03T06:54:58.204Z,5.30
2017-10-03T06:57:25.596Z,7.03
2017-10-03T06:59:52.178Z,7.20
2017-10-03T07:02:18.883Z,7.40
2017-10-03T07:04:45.738Z,6.20
2017-10-03T07:07:13.334Z,7.33
2017-10-03T07:09:39.869Z,7.97
2017-10-03T07:12:06.383Z,7.13
2017-10-03T07:14:33.766Z,7.20
2017-10-03T07:17:00.366Z,6.93
2017-10-03T07:19:27.934Z,6.30
2017-10-03T07:21:54.573Z,6.20
2017-10-03T07:24:21.257Z,6.50
2017-10-03T07:26:47.754Z,7.07
2017-10-03T07:29:15.213Z,5.93
2017-10-03T07:31:42.441Z,6.20
2017-10-03T07:34:10.955Z,5.33
2017-10-03T07:36:37.483Z,5.43
2017-10-03T07:39:04.078Z,4.70
2017-10-03T07:41:30.700Z,5.00
2017-10-03T07:43:57.991Z,5.10
2017-10-03T07:46:25.236Z,4.90
2017-10-03T07:48:51.961Z,5.53
2017-10-03T07:51:19.316Z,5.33
2017-10-03T07:53:45.844Z,5.67
2017-10-03T07:56:13.025Z,4.67
2017-10-03T07:58:40.552Z,6.80
2017-10-03T08:01:07.767Z,6.37
2017-10-03T08:03:35.103Z,5.57
2017-10-03T08:06:02.328Z,5.37
2017-10-03T08:08:30.546Z,5.70
2017-10-03T08:10:59.263Z,5.40
2017-10-03T08:13:26.656Z,6.80
2017-10-03T08:15:53.185Z,5.03
2017-10-03T08:18:21.586Z,4.73
2017-10-03T08:20:48.260Z,4.33
2017-10-03T08:23:14.799Z,5.50
2017-10-03T08:25:41.405Z,5.17
2017-10-03T08:28:08.699Z,5.60
2017-10-03T08:30:35.969Z,6.30
2017-10-03T08:33:02.540Z,5.23
2017-10-03T08:35:30.522Z,5.10
2017-10-03T08:37:57.003Z,4.83
2017-10-03T08:40:24.515Z,4.70
2017-10-03T08:42:51.043Z,4.13
2017-10-03T08:45:19.059Z,4.27
2017-10-03T08:47:45.957Z,4.70
2017-10-03T08:50:15.090Z,5.20
2017-10-03T08:52:42.333Z,5.07
2017-10-03T08:55:09.632Z,5.00
2017-10-03T08:57:36.224Z,5.83
2017-10-03T09:00:02.805Z,4.83
2017-10-03T09:02:31.785Z,4.67
2017-10-03T09:04:58.315Z,3.70
2017-10-03T09:07:25.795Z,4.57
2017-10-03T09:09:52.331Z,5.40
2017-10-03T09:12:18.958Z,5.70
2017-10-03T09:14:45.512Z,6.00
2017-10-03T09:17:12.179Z,7.53
2017-10-03T09:19:40.247Z,5.50
2017-10-03T09:22:07.378Z,5.10
2017-10-03T09:24:33.854Z,4.73
2017-10-03T09:27:00.498Z,5.03
2017-10-03T09:29:27.868Z,4.60
2017-10-03T09:31:54.418Z,4.50
2017-10-03T09:34:20.916Z,4.50
2017-10-03T09:36:47.366Z,3.97
2017-10-03T09:39:13.822Z,3.50
2017-10-03T09:41:40.386Z,3.80
2017-10-03T09:44:07.017Z,4.10
2017-10-03T09:46:33.873Z,4.13
2017-10-03T09:49:00.411Z,5.10
2017-10-03T09:51:27.745Z,4.70
2017-10-03T09:53:55.781Z,5.50
2017-10-03T09:56:23.120Z,4.33
2017-10-03T09:58:49.605Z,6.03
2017-10-03T10:01:17.313Z,4.07
2017-10-03T10:03:45.429Z,3.97
2017-10-03T10:06:14.348Z,4.30
2017-10-03T10:08:41.680Z,3.63
2017-10-03T10:11:08.347Z,3.53
2017-10-03T10:13:34.782Z,3.20
2017-10-03T10:16:01.773Z,3.50
2017-10-03T10:18:30.043Z,2.60
2017-10-03T10:20:56.545Z,2.50
2017-10-03T10:23:24.796Z,2.40
2017-10-03T10:25:52.722Z,2.50
2017-10-03T10:28:19.318Z,2.70
2017-10-03T10:30:47.536Z,2.70
2017-10-03T10:33:14.887Z,2.60
2017-10-03T10:35:42.161Z,2.20
2017-10-03T10:38:08.772Z,2.77
2017-10-03T10:40:35.347Z,2.97
2017-10-03T10:43:02.436Z,2.10
2017-10-03T10:45:28.976Z,2.30
2017-10-03T10:47:56.084Z,1.80
2017-10-03T10:50:22.647Z,3.00
2017-10-03T10:52:49.304Z,2.27
2017-10-03T10:55:17.651Z,2.80
2017-10-03T10:57:45.122Z,2.37
2017-10-03T11:00:11.733Z,3.77
2017-10-03T11:02:38.326Z,2.70
2017-10-03T11:05:04.887Z,4.93
2017-10-03T11:07:31.588Z,6.10
2017-10-03T11:10:00.065Z,7.50
2017-10-03T11:12:27.564Z,4.00
2017-10-03T11:14:57.497Z,2.13
2017-10-03T11:17:24.705Z,2.07
2017-10-03T11:19:52.043Z,2.33
2017-10-03T11:22:18.784Z,2.83
2017-10-03T11:24:45.498Z,2.40
2017-10-03T11:27:12.122Z,2.00
2017-10-03T11:29:38.657Z,2.20
2017-10-03T11:32:06.223Z,1.97
2017-10-03T11:34:33.731Z,2.13
2017-10-03T11:37:01.176Z,1.70
2017-10-03T11:39:27.726Z,1.97
2017-10-03T11:41:54.721Z,1.30
2017-10-03T11:44:22.023Z,2.00
2017-10-03T11:46:50.232Z,1.97
2017-10-03T11:49:17.376Z,1.70
2017-10-03T11:51:44.631Z,2.80
2017-10-03T11:54:11.685Z,1.63
2017-10-03T11:56:38.655Z,1.60
2017-10-03T11:59:06.899Z,1.83
2017-10-03T12:01:37.382Z,2.00
2017-10-03T12:04:04.653Z,2.20
2017-10-03T12:06:31.911Z,2.03
2017-10-03T12:08:58.466Z,3.23
2017-10-03T12:11:25.802Z,1.30
2017-10-03T12:13:53.075Z,2.40
2017-10-03T12:16:21.260Z,1.90
2017-10-03T12:18:47.888Z,1.97
2017-10-03T12:21:16.592Z,2.13
2017-10-03T12:23:44.071Z,1.60
2017-10-03T12:26:13.629Z,2.00
2017-10-03T12:28:41.235Z,1.60
2017-10-03T12:31:08.956Z,2.07
2017-10-03T12:33:35.498Z,2.10
2017-10-03T12:36:02.515Z,1.30
2017-10-03T12:38:29.699Z,1.67
2017-10-03T12:40:56.384Z,2.77
2017-10-03T12:43:25.329Z,1.83
2017-10-03T12:45:51.802Z,2.20
2017-10-03T12:48:18.386Z,2.07
2017-10-03T12:50:44.907Z,2.50
2017-10-03T12:53:12.024Z,2.13
2017-10-03T12:55:38.576Z,2.50
2017-10-03T12:58:07.012Z,2.10
2017-10-03T13:00:34.314Z,1.37
2017-10-03T13:03:00.965Z,1.70
2017-10-03T13:05:27.494Z,1.80
2017-10-03T13:07:55.306Z,2.30
2017-10-03T13:10:22.195Z,2.00
2017-10-03T13:12:49.759Z,2.77
2017-10-03T13:15:16.678Z,1.80
2017-10-03T13:17:43.962Z,3.50
2017-10-03T13:20:11.546Z,1.57
2017-10-03T13:22:38.170Z,1.70
2017-10-03T13:25:04.654Z,1.87
2017-10-03T13:27:31.527Z,2.37
2017-10-03T13:29:58.182Z,2.00
2017-10-03T13:32:27.402Z,1.87
2017-10-03T13:34:54.875Z,1.40
2017-10-03T13:37:22.366Z,2.20
2017-10-03T13:39:49.946Z,2.10
2017-10-03T13:42:16.496Z,2.10
2017-10-03T13:44:43.574Z,1.67
2017-10-03T13:47:10.322Z,2.40
2017-10-03T13:49:39.030Z,2.00
2017-10-03T13:52:05.535Z,2.77
2017-10-03T13:54:32.859Z,2.90
2017-10-03T13:56:59.433Z,2.47
2017-10-03T13:59:25.926Z,1.90
2017-10-03T14:01:52.426Z,2.53
2017-10-03T14:04:18.948Z,1.70
2017-10-03T14:06:45.437Z,2.40
2017-10-03T14:09:11.931Z,2.17
2017-10-03T14:11:39.817Z,2.60
2017-10-03T14:14:07.294Z,2.73
2017-10-03T14:16:34.883Z,2.90
2017-10-03T14:19:02.702Z,1.87
2017-10-03T14:21:33.551Z,2.00
2017-10-03T14:24:01.956Z,2.03
2017-10-03T14:26:32.697Z,1.90
2017-10-03T14:29:01.667Z,2.00
2017-10-03T14:31:29.809Z,1.77
2017-10-03T14:33:58.015Z,2.10
2017-10-03T14:36:26.503Z,2.53
2017-10-03T14:38:57.949Z,2.00
2017-10-03T14:41:25.654Z,2.60
2017-10-03T14:43:52.762Z,2.20
2017-10-03T14:46:22.695Z,1.97
2017-10-03T14:48:49.297Z,1.93
2017-10-03T14:51:16.287Z,2.83
2017-10-03T14:53:42.818Z,2.70
2017-10-03T14:56:12.087Z,2.77
2017-10-03T14:58:40.091Z,3.43
2017-10-03T15:01:06.655Z,1.70
2017-10-03T15:03:33.160Z,2.57
2017-10-03T15:05:59.620Z,2.57
2017-10-03T15:08:26.300Z,2.10
2017-10-03T15:10:53.821Z,2.47
2017-10-03T15:13:20.415Z,3.00
2017-10-03T15:15:47.772Z,4.03
2017-10-03T15:18:14.983Z,2.80
2017-10-03T15:20:41.479Z,2.80
2017-10-03T15:23:08.654Z,2.93
2017-10-03T15:25:36.049Z,2.37
2017-10-03T15:28:02.531Z,2.83
2017-10-03T15:30:29.012Z,3.00
2017-10-03T15:32:55.690Z,2.70
2017-10-03T15:35:22.970Z,2.33
2017-10-03T15:37:50.203Z,2.70
2017-10-03T15:40:16.824Z,2.03
2017-10-03T15:42:43.515Z,3.27
2017-10-03T15:45:10.867Z,2.50
2017-10-03T15:47:39.621Z,2.20
2017-10-03T15:50:06.767Z,3.27
2017-10-03T15:52:33.330Z,2.10
2017-10-03T15:55:02.744Z,2.10
2017-10-03T15:57:30.058Z,2.40
2017-10-03T15:59:56.587Z,1.77
2017-10-03T16:02:23.100Z,4.63
2017-10-03T16:04:51.553Z,2.00
2017-10-03T16:07:18.595Z,2.10
2017-10-03T16:09:46.074Z,2.37
2017-10-03T16:12:12.861Z,3.20
2017-10-03T16:14:39.416Z,2.03
2017-10-03T16:17:07.689Z,2.00
2017-10-03T16:19:36.227Z,2.73
2017-10-03T16:22:03.322Z,2.23
2017-10-03T16:24:31.264Z,2.73
2017-10-03T16:27:00.797Z,3.10
2017-10-03T16:29:28.181Z,2.90
2017-10-03T16:31:54.650Z,2.17
2017-10-03T16:34:21.845Z,2.23
2017-10-03T16:36:48.406Z,2.70
2017-10-03T16:39:15.036Z,2.30
2017-10-03T16:41:41.653Z,2.90
2017-10-03T16:44:08.924Z,3.13
2017-10-03T16:46:36.070Z,4.03
2017-10-03T16:49:03.242Z,2.77
2017-10-03T16:51:29.950Z,2.93
2017-10-03T16:53:57.054Z,3.13
2017-10-03T16:56:23.642Z,2.80
2017-10-03T16:58:50.121Z,3.00
2017-10-03T17:01:16.675Z,3.30
2017-10-03T17:03:44.059Z,10.77
2017-10-03T17:06:10.770Z,6.00
2017-10-03T17:08:37.200Z,4.50
2017-10-03T17:11:03.758Z,4.90
2017-10-03T17:13:31.476Z,4.10
2017-10-03T17:15:58.476Z,3.40
2017-10-03T17:18:27.192Z,3.93
2017-10-03T17:20:54.700Z,3.50
2017-10-03T17:23:21.366Z,4.30
2017-10-03T17:25:48.914Z,5.07
2017-10-03T17:28:16.686Z,4.40
2017-10-03T17:30:44.158Z,4.60
2017-10-03T17:33:10.759Z,4.83
2017-10-03T17:35:38.225Z,4.83
2017-10-03T17:38:04.684Z,4.63
2017-10-03T17:40:32.623Z,3.73
2017-10-03T17:42:59.060Z,5.80
2017-10-03T17:45:25.477Z,3.60
2017-10-03T17:47:52.716Z,4.30
2017-10-03T17:50:19.132Z,3.70
2017-10-03T17:52:46.327Z,4.60
2017-10-03T17:55:13.495Z,3.60
2017-10-03T17:57:40.018Z,2.40
2017-10-03T18:00:07.926Z,2.83
2017-10-03T18:02:35.106Z,2.13
2017-10-03T18:05:01.581Z,3.17
2017-10-03T18:07:28.187Z,2.60
2017-10-03T18:09:54.615Z,2.30
2017-10-03T18:12:21.106Z,2.00
2017-10-03T18:14:47.587Z,2.30
2017-10-03T18:17:14.006Z,2.90
2017-10-03T18:19:40.466Z,3.50
2017-10-03T18:22:06.882Z,3.10
2017-10-03T18:24:33.324Z,2.50
2017-10-03T18:26:59.799Z,2.60
2017-10-03T18:29:26.203Z,1.93
2017-10-03T18:31:52.655Z,2.60
2017-10-03T18:34:19.180Z,2.87
2017-10-03T18:36:45.594Z,3.37
2017-10-03T18:39:12.790Z,3.83
2017-10-03T18:41:39.231Z,3.90
2017-10-03T18:44:05.627Z,3.70
2017-10-03T18:46:32.018Z,3.40
2017-10-03T18:48:58.504Z,2.73
2017-10-03T18:51:25.674Z,2.47
2017-10-03T18:53:52.229Z,2.37
2017-10-03T18:56:19.387Z,2.90
2017-10-03T18:58:46.547Z,4.93
2017-10-03T19:01:13.679Z,5.17
2017-10-03T19:03:40.242Z,3.40
2017-10-03T19:06:06.648Z,3.13
2017-10-03T19:08:33.074Z,11.93
2017-10-03T19:10:59.666Z,25.40
2017-10-03T19:13:26.118Z,28.53
2017-10-03T19:15:52.623Z,17.40
2017-10-03T19:18:20.563Z,3.87
2017-10-03T19:20:47.022Z,3.60
2017-10-03T19:23:13.500Z,3.30
2017-10-03T19:25:39.929Z,4.07
2017-10-03T19:28:06.389Z,3.23
2017-10-03T19:30:32.877Z,3.50
2017-10-03T19:32:59.334Z,3.70
2017-10-03T19:35:26.619Z,3.60
2017-10-03T19:37:53.276Z,2.83
2017-10-03T19:40:19.728Z,4.27
2017-10-03T19:42:46.167Z,2.73
2017-10-03T19:45:12.653Z,2.93
2017-10-03T19:47:39.825Z,2.63
2017-10-03T19:50:07.049Z,3.13
2017-10-03T19:52:34.258Z,2.70
2017-10-03T19:55:00.746Z,2.40
2017-10-03T19:57:27.182Z,2.20
2017-10-03T19:59:53.964Z,2.63
2017-10-03T20:02:21.160Z,3.70
2017-10-03T20:04:47.623Z,2.90
2017-10-03T20:07:14.082Z,3.43
2017-10-03T20:09:40.587Z,4.07
2017-10-03T20:12:07.040Z,2.87
2017-10-03T20:14:33.643Z,2.83
2017-10-03T20:17:00.126Z,2.93
2017-10-03T20:19:26.561Z,3.37
2017-10-03T20:21:53.059Z,3.13
2017-10-03T20:24:19.502Z,2.80
2017-10-03T20:26:45.981Z,3.10
2017-10-03T20:29:13.222Z,3.50
2017-10-03T20:31:40.471Z,2.10
2017-10-03T20:34:06.926Z,1.97
2017-10-03T20:36:33.314Z,3.30
2017-10-03T20:38:59.782Z,2.73
2017-10-03T20:41:26.203Z,2.80
2017-10-03T20:43:52.653Z,3.90
2017-10-03T20:46:19.050Z,2.67
2017-10-03T20:48:46.279Z,2.13
2017-10-03T20:51:12.718Z,3.30
2017-10-03T20:53:39.443Z,3.67
2017-10-03T20:56:05.913Z,2.83
2017-10-03T20:58:39.855Z,2.90
2017-10-03T21:01:07.054Z,3.27
2017-10-03T21:03:33.551Z,3.40
2017-10-03T21:05:59.992Z,2.80
2017-10-03T21:08:26.486Z,3.60
2017-10-03T21:10:53.643Z,3.30
2017-10-03T21:13:20.797Z,3.20
2017-10-03T21:15:47.225Z,3.70
2017-10-03T21:18:14.755Z,3.03
2017-10-03T21:20:41.279Z,3.80
2017-10-03T21:23:07.722Z,3.20
2017-10-03T21:25:34.214Z,3.50
2017-10-03T21:28:01.414Z,3.17
2017-10-03T21:30:27.907Z,4.03
2017-10-03T21:32:55.170Z,3.90
2017-10-03T21:35:21.614Z,3.23
2017-10-03T21:37:48.031Z,4.20
2017-10-03T21:40:14.615Z,3.10
2017-10-03T21:42:53.389Z,3.73
2017-10-03T21:45:20.599Z,3.23
2017-10-03T21:47:47.065Z,4.13
2017-10-03T21:50:13.643Z,3.83
2017-10-03T21:52:40.800Z,3.17
2017-10-03T21:55:07.510Z,3.40
2017-10-03T21:57:34.702Z,2.83
2017-10-03T22:00:01.226Z,3.43
2017-10-03T22:02:27.707Z,3.90
2017-10-03T22:04:54.833Z,3.50
2017-10-03T22:07:21.252Z,3.10
2017-10-03T22:09:47.774Z,5.17
2017-10-03T22:12:14.242Z,2.80
2017-10-03T22:14:40.788Z,3.27
2017-10-03T22:17:07.336Z,4.00
2017-10-03T22:19:33.762Z,3.70
2017-10-03T22:22:00.475Z,3.60
2017-10-03T22:24:26.906Z,4.20
2017-10-03T22:26:53.369Z,4.00
2017-10-03T22:29:20.570Z,4.23
2017-10-03T22:31:47.018Z,4.53
2017-10-03T22:34:13.443Z,3.90
2017-10-03T22:36:39.849Z,4.43
2017-10-03T22:39:06.993Z,3.03
2017-10-03T22:41:34.171Z,3.60
2017-10-03T22:44:01.910Z,3.23
2017-10-03T22:46:28.397Z,4.17
2017-10-03T22:48:54.835Z,3.33
2017-10-03T22:51:27.966Z,4.13
2017-10-03T22:53:55.262Z,5.40
2017-10-03T22:56:22.478Z,3.30
2017-10-03T22:58:48.976Z,3.87
2017-10-03T23:01:15.366Z,2.50
2017-10-03T23:03:41.810Z,4.17
2017-10-03T23:06:08.276Z,4.07
2017-10-03T23:08:34.794Z,3.33
2017-10-03T23:11:01.982Z,3.63
2017-10-03T23:13:28.439Z,3.20
2017-10-03T23:15:54.827Z,3.20
2017-10-03T23:18:21.288Z,2.70
2017-10-03T23:20:47.767Z,3.87
2017-10-03T23:23:14.187Z,3.23
2017-10-03T23:25:40.582Z,3.10
2017-10-03T23:28:07.009Z,4.47
2017-10-03T23:30:33.455Z,2.83
2017-10-03T23:32:59.906Z,3.27
2017-10-03T23:35:27.096Z,3.20
2017-10-03T23:37:54.251Z,2.50
2017-10-03T23:40:20.762Z,2.80
2017-10-03T23:42:47.127Z,3.73
2017-10-03T23:45:13.543Z,3.80
2017-10-03T23:47:39.934Z,3.53
2017-10-03T23:50:06.566Z,3.10
2017-10-03T23:52:33.015Z,2.53
2017-10-03T23:55:00.246Z,3.40
2017-10-03T23:57:27.246Z,3.20
2017-10-03T23:59:53.715Z,2.07
